Time;durP1;ratioP1;P1;durP2;ratioP2;P2;SDS_P1;SDS_P2;PMS_P1;PMS_P2;Temp;Humidity;BMP_temperature;BMP_pressure;BME280_temperature;BME280_humidity;BME280_pressure;Samples;Min_cycle;Max_cycle;Signal;HPM_P1;HPM_P2
2021/10/17 00:01:19;;;;;;;1.92;1.02;;;;;;;18.37;59.54;102077.69;4883885;29;20053;-77
2021/10/17 00:03:45;;;;;;;1.70;1.15;;;;;;;18.36;59.68;102073.34;4901487;29;20478;-77
2021/10/17 00:06:10;;;;;;;2.97;1.50;;;;;;;18.36;59.62;102072.50;4900347;29;20037;-77
2021/10/17 00:08:36;;;;;;;2.60;1.30;;;;;;;18.36;59.52;102069.88;4900020;29;20462;-76
2021/10/17 00:11:01;;;;;;;2.00;1.30;;;;;;;18.35;59.53;102071.59;4869176;29;20549;-76
2021/10/17 00:13:27;;;;;;;4.22;1.45;;;;;;;18.35;59.70;102070.72;4869030;29;20424;-76
2021/10/17 00:15:53;;;;;;;3.03;1.33;;;;;;;18.35;59.72;102069.00;4884520;29;20056;-77
2021/10/17 00:18:18;;;;;;;1.45;1.02;;;;;;;18.35;59.45;102066.38;4869289;29;20054;-76
2021/10/17 00:20:44;;;;;;;1.95;1.30;;;;;;;18.35;59.65;102070.72;4869437;29;20033;-77
2021/10/17 00:23:09;;;;;;;2.60;1.30;;;;;;;18.35;59.35;102071.59;4901235;29;20029;-76
2021/10/17 00:25:35;;;;;;;2.08;1.15;;;;;;;18.35;59.76;102073.34;4884154;29;20035;-77
2021/10/17 00:28:00;;;;;;;2.38;1.42;;;;;;;18.34;59.68;102072.47;4899997;29;20111;-75
2021/10/17 00:30:26;;;;;;;1.73;1.10;;;;;;;18.33;59.53;102065.50;4868977;29;20060;-77
2021/10/17 00:32:51;;;;;;;2.58;1.38;;;;;;;18.33;59.65;102068.09;4899989;29;20111;-76
2021/10/17 00:35:17;;;;;;;3.25;1.30;;;;;;;18.33;59.61;102067.25;4884580;29;20044;-76
2021/10/17 00:37:43;;;;;;;2.63;1.20;;;;;;;18.33;59.49;102064.63;4899831;29;20024;-76
2021/10/17 00:40:14;;;;;;;2.65;1.35;;;;;;;18.32;59.78;102061.16;4899785;29;20032;-75
2021/10/17 00:42:42;;;;;;;2.17;1.27;;;;;;;18.31;59.76;102067.22;4900801;29;20037;-76
2021/10/17 00:45:11;;;;;;;2.50;1.15;;;;;;;18.32;59.62;102063.75;4883894;29;20084;-75
2021/10/17 00:47:37;;;;;;;2.33;1.20;;;;;;;18.33;59.58;102062.03;4884312;29;20033;-76
2021/10/17 00:50:04;;;;;;;2.60;1.20;;;;;;;18.32;59.39;102061.16;4899672;29;20025;-75
2021/10/17 00:52:33;;;;;;;2.17;1.20;;;;;;;18.32;59.55;102058.56;4868872;29;20043;-75
2021/10/17 00:54:58;;;;;;;4.45;1.92;;;;;;;18.32;59.71;102058.56;4884698;29;20037;-75
2021/10/17 00:57:24;;;;;;;2.30;1.40;;;;;;;18.31;59.40;102059.41;4884267;29;20089;-76
2021/10/17 00:59:49;;;;;;;2.67;1.50;;;;;;;18.31;59.67;102056.78;4899184;29;20101;-77
2021/10/17 01:02:15;;;;;;;3.38;1.20;;;;;;;18.32;59.54;102055.09;4899101;29;20140;-76
2021/10/17 01:04:43;;;;;;;3.28;1.20;;;;;;;18.30;59.51;102055.94;4883893;29;20047;-75
2021/10/17 01:07:09;;;;;;;1.80;1.13;;;;;;;18.32;59.62;102060.28;4884086;29;20041;-77
2021/10/17 01:09:35;;;;;;;2.85;1.02;;;;;;;18.30;59.67;102058.53;4883638;29;20092;-75
2021/10/17 01:12:01;;;;;;;2.05;1.10;;;;;;;18.30;59.83;102063.75;4882870;29;20542;-76
2021/10/17 01:14:26;;;;;;;2.33;1.23;;;;;;;18.28;59.99;102055.03;4899047;29;20036;-77
2021/10/17 01:16:52;;;;;;;2.70;1.20;;;;;;;18.30;59.57;102060.28;4883413;29;20033;-76
2021/10/17 01:19:20;;;;;;;3.38;1.50;;;;;;;18.29;59.59;102050.69;4883669;29;20036;-76
2021/10/17 01:21:47;;;;;;;1.63;1.20;;;;;;;18.29;59.72;102045.47;4883450;29;20025;-75
2021/10/17 01:24:13;;;;;;;1.67;1.17;;;;;;;18.29;59.74;102049.00;4883772;29;20037;-76
2021/10/17 01:26:40;;;;;;;2.10;1.35;;;;;;;18.28;59.78;102057.66;4883702;29;20028;-76
2021/10/17 01:29:06;;;;;;;2.00;1.15;;;;;;;18.28;59.58;102055.03;4883333;29;20036;-76
2021/10/17 01:31:37;;;;;;;2.03;1.23;;;;;;;18.26;59.76;102048.94;4883379;29;20477;-77
2021/10/17 01:34:04;;;;;;;2.03;1.10;;;;;;;18.28;60.02;102043.75;4867886;29;20036;-76
2021/10/17 01:36:30;;;;;;;2.38;1.23;;;;;;;18.27;59.31;102047.25;4899181;29;20024;-76
2021/10/17 01:38:56;;;;;;;2.13;1.33;;;;;;;18.27;59.64;102042.03;4883125;29;20386;-76
2021/10/17 01:41:22;;;;;;;3.97;1.23;;;;;;;18.25;59.76;102031.59;4898503;29;20075;-78
2021/10/17 01:43:47;;;;;;;2.45;1.10;;;;;;;18.25;59.68;102036.78;4883052;29;20048;-75
2021/10/17 01:46:13;;;;;;;1.75;1.13;;;;;;;18.25;59.71;102028.13;4882927;29;20389;-75
2021/10/17 01:48:38;;;;;;;1.60;1.10;;;;;;;18.25;59.81;102034.19;4883084;29;20032;-77
2021/10/17 01:51:03;;;;;;;2.15;1.27;;;;;;;18.26;59.83;102032.44;4867284;29;20033;-78
2021/10/17 01:53:29;;;;;;;2.15;1.30;;;;;;;18.24;59.55;102034.16;4898403;29;20028;-76
2021/10/17 01:56:00;;;;;;;1.92;1.20;;;;;;;18.24;59.74;102029.81;4867477;29;20552;-77
2021/10/17 01:58:25;;;;;;;2.30;1.23;;;;;;;18.24;59.93;102035.03;4867326;29;20124;-76
2021/10/17 02:00:52;;;;;;;3.45;1.27;;;;;;;18.24;59.60;102037.66;4882804;29;20115;-78
2021/10/17 02:03:18;;;;;;;2.55;1.23;;;;;;;18.24;59.70;102032.44;4882840;29;20133;-78
2021/10/17 02:05:43;;;;;;;2.67;1.13;;;;;;;18.23;59.90;102032.44;4882728;29;20119;-78
2021/10/17 02:08:08;;;;;;;2.60;1.30;;;;;;;18.24;59.96;102040.25;4899380;29;20028;-78
2021/10/17 02:10:34;;;;;;;1.52;1.05;;;;;;;18.23;59.94;102029.84;4882590;29;20045;-77
2021/10/17 02:12:59;;;;;;;1.60;1.10;;;;;;;18.23;59.90;102032.44;4882616;29;20065;-76
2021/10/17 02:15:25;;;;;;;2.42;1.45;;;;;;;18.22;59.86;102033.28;4882682;29;20111;-76
2021/10/17 02:17:51;;;;;;;2.03;1.23;;;;;;;18.23;59.96;102043.72;4866874;29;20134;-76
2021/10/17 02:20:16;;;;;;;3.60;1.10;;;;;;;18.23;59.97;102035.06;4882441;29;20033;-77
2021/10/17 02:22:41;;;;;;;1.75;1.10;;;;;;;18.23;59.50;102038.53;4881993;29;20037;-77
2021/10/17 02:25:08;;;;;;;1.88;1.10;;;;;;;18.22;60.03;102036.75;4866772;29;20044;-78
2021/10/17 02:27:33;;;;;;;1.60;1.00;;;;;;;18.22;59.76;102031.53;4882312;29;20029;-77
2021/10/17 02:29:59;;;;;;;2.35;1.17;;;;;;;18.22;59.79;102023.72;4882317;29;20103;-77
2021/10/17 02:32:24;;;;;;;2.55;1.20;;;;;;;18.23;59.80;102025.50;4882364;29;20032;-77
2021/10/17 02:34:50;;;;;;;2.30;1.25;;;;;;;18.24;59.77;102031.56;4898935;29;20059;-76
2021/10/17 02:37:15;;;;;;;2.92;1.50;;;;;;;18.23;59.87;102033.31;4866731;29;20032;-77
2021/10/17 02:39:41;;;;;;;2.53;1.30;;;;;;;18.23;59.92;102028.09;4866651;29;20409;-78
2021/10/17 02:42:06;;;;;;;1.95;1.20;;;;;;;18.23;59.86;102022.03;4866493;29;20120;-78
2021/10/17 02:44:32;;;;;;;2.00;1.10;;;;;;;18.23;59.89;102025.50;4898837;29;20037;-78
2021/10/17 02:46:57;;;;;;;2.65;1.20;;;;;;;18.21;59.56;102022.00;4897472;29;20088;-78
2021/10/17 02:49:24;;;;;;;4.00;1.48;;;;;;;18.23;59.81;102024.63;4882138;29;20032;-76
2021/10/17 02:51:50;;;;;;;2.03;1.20;;;;;;;18.23;60.02;102022.03;4866617;29;20111;-77
2021/10/17 02:54:17;;;;;;;2.05;1.20;;;;;;;18.23;60.08;102022.03;4898681;29;20103;-77
2021/10/17 02:56:43;;;;;;;1.65;1.17;;;;;;;18.22;59.84;102021.13;4881949;29;20036;-77
2021/10/17 02:59:08;;;;;;;2.20;1.50;;;;;;;18.22;59.70;102015.91;4881755;29;20032;-77
2021/10/17 03:01:34;;;;;;;1.88;1.20;;;;;;;18.22;59.90;102015.91;4865987;29;20424;-78
2021/10/17 03:03:59;;;;;;;2.47;1.13;;;;;;;18.22;59.73;102015.91;4881537;29;20029;-77
2021/10/17 03:06:28;;;;;;;1.85;1.20;;;;;;;18.22;59.96;102010.69;4881834;29;20112;-78
2021/10/17 03:08:53;;;;;;;2.08;1.40;;;;;;;18.22;59.94;102007.22;4882618;29;20028;-75
2021/10/17 03:11:19;;;;;;;1.90;1.00;;;;;;;18.21;59.96;102011.56;4882381;29;20091;-76
2021/10/17 03:13:45;;;;;;;2.38;1.30;;;;;;;18.21;59.80;102016.78;4882018;29;20033;-76
2021/10/17 03:16:10;;;;;;;1.80;1.15;;;;;;;18.22;59.88;102010.69;4866062;29;20035;-76
2021/10/17 03:18:35;;;;;;;3.75;1.25;;;;;;;18.23;59.92;102017.69;4881761;29;20041;-77
2021/10/17 03:21:02;;;;;;;2.10;1.17;;;;;;;18.23;59.87;102011.59;4881803;29;20481;-78
2021/10/17 03:23:28;;;;;;;3.25;1.20;;;;;;;18.20;59.79;102007.22;4865977;29;20045;-77
2021/10/17 03:25:53;;;;;;;2.45;1.40;;;;;;;18.20;60.06;102001.13;4881580;29;20489;-75
2021/10/17 03:28:19;;;;;;;1.23;0.90;;;;;;;18.21;59.92;102002.91;4866065;29;20029;-76
2021/10/17 03:30:44;;;;;;;2.42;1.30;;;;;;;18.22;59.98;101995.06;4881356;29;20037;-76
2021/10/17 03:33:09;;;;;;;3.97;1.30;;;;;;;18.21;59.92;101993.34;4898353;29;20064;-76
2021/10/17 03:35:35;;;;;;;1.88;1.27;;;;;;;18.20;59.84;101986.38;4883658;29;20113;-77
2021/10/17 03:38:00;;;;;;;2.70;1.23;;;;;;;18.20;60.13;101985.50;4885436;29;20109;-76
2021/10/17 03:40:25;;;;;;;2.03;1.20;;;;;;;18.20;59.85;101986.38;4869650;29;20513;-77
2021/10/17 03:42:51;;;;;;;2.88;1.30;;;;;;;18.20;59.79;101988.97;4885150;29;20056;-76
2021/10/17 03:45:16;;;;;;;2.65;1.23;;;;;;;18.21;59.88;101980.31;4900641;29;20490;-77
2021/10/17 03:47:42;;;;;;;2.20;1.23;;;;;;;18.20;59.91;101982.91;4885227;29;20033;-76
2021/10/17 03:50:08;;;;;;;2.25;1.35;;;;;;;18.20;59.94;101986.38;4869767;29;20362;-75
2021/10/17 03:52:33;;;;;;;2.38;1.40;;;;;;;18.20;60.02;101981.16;4901923;29;20052;-75
2021/10/17 03:54:59;;;;;;;2.35;1.35;;;;;;;18.20;59.90;101985.50;4885042;29;20095;-76
2021/10/17 03:57:24;;;;;;;1.80;1.27;;;;;;;18.19;59.95;101986.38;4885059;29;20047;-76
2021/10/17 03:59:50;;;;;;;2.58;1.30;;;;;;;18.19;59.99;102000.28;4885336;29;20035;-77
2021/10/17 04:02:15;;;;;;;2.20;1.52;;;;;;;18.19;59.90;102002.00;4901547;29;20506;-76
2021/10/17 04:04:40;;;;;;;3.42;1.42;;;;;;;18.19;60.05;101987.25;4885196;29;20044;-75
2021/10/17 04:07:07;;;;;;;2.33;1.15;;;;;;;18.18;59.97;101989.84;4901457;29;20039;-77
2021/10/17 04:09:32;;;;;;;3.40;1.50;;;;;;;18.19;60.02;101986.38;4869340;29;20036;-78
2021/10/17 04:11:57;;;;;;;2.15;1.15;;;;;;;18.18;60.08;101988.13;4869160;29;20486;-76
2021/10/17 04:14:23;;;;;;;2.95;1.40;;;;;;;18.19;59.84;101986.38;4884680;29;20039;-76
2021/10/17 04:16:48;;;;;;;2.40;1.33;;;;;;;18.18;59.83;101988.13;4869090;29;20444;-76
2021/10/17 04:19:14;;;;;;;2.28;1.20;;;;;;;18.18;60.06;101980.31;4884564;29;20029;-76
2021/10/17 04:21:39;;;;;;;2.15;1.30;;;;;;;18.16;60.01;101982.03;4869153;29;20041;-76
2021/10/17 04:24:06;;;;;;;2.75;1.20;;;;;;;18.16;60.00;101982.03;4868838;29;20061;-75
2021/10/17 04:26:32;;;;;;;1.95;1.23;;;;;;;18.16;59.88;101982.03;4884573;29;20398;-76
2021/10/17 04:28:57;;;;;;;2.55;1.20;;;;;;;18.17;59.89;101980.28;4884215;29;20032;-76
2021/10/17 04:31:23;;;;;;;2.80;1.20;;;;;;;18.17;59.96;101983.75;4900968;29;20382;-77
2021/10/17 04:33:51;;;;;;;4.03;1.63;;;;;;;18.17;59.81;101981.16;4870273;29;20025;-76
2021/10/17 04:36:16;;;;;;;2.33;1.25;;;;;;;18.18;60.01;101984.63;4884508;29;20043;-76
2021/10/17 04:38:43;;;;;;;2.58;1.23;;;;;;;18.16;60.01;101984.63;4868793;29;20394;-77
2021/10/17 04:41:08;;;;;;;2.25;1.40;;;;;;;18.16;60.10;101982.03;4900021;29;20028;-77
2021/10/17 04:43:35;;;;;;;2.47;1.23;;;;;;;18.16;59.90;101981.13;4899784;29;20546;-76
2021/10/17 04:46:02;;;;;;;1.98;1.10;;;;;;;18.16;59.93;101982.03;4884053;29;20506;-77
2021/10/17 04:48:30;;;;;;;2.33;1.33;;;;;;;18.16;59.90;101981.13;4900893;29;20033;-76
2021/10/17 04:50:55;;;;;;;4.07;1.30;;;;;;;18.16;59.89;101983.75;4884717;29;20123;-77
2021/10/17 04:53:21;;;;;;;2.83;1.48;;;;;;;18.14;60.10;101981.16;4868374;29;20120;-77
2021/10/17 04:55:46;;;;;;;3.25;1.45;;;;;;;18.14;59.96;101985.47;4900727;29;20485;-77
2021/10/17 04:58:11;;;;;;;4.32;1.40;;;;;;;18.15;60.02;101987.22;4867994;29;20088;-77
2021/10/17 05:00:37;;;;;;;2.67;1.40;;;;;;;18.15;59.82;101982.00;4868517;29;20051;-77
2021/10/17 05:03:02;;;;;;;2.70;1.35;;;;;;;18.14;60.09;101981.16;4883535;29;20060;-76
2021/10/17 05:05:28;;;;;;;2.17;1.20;;;;;;;18.14;60.25;101978.53;4899112;29;20028;-76
2021/10/17 05:07:54;;;;;;;3.50;1.38;;;;;;;18.14;60.01;101975.94;4868139;29;20394;-76
2021/10/17 05:10:19;;;;;;;3.03;1.52;;;;;;;18.14;60.23;101977.66;4883489;29;20080;-76
2021/10/17 05:12:45;;;;;;;2.30;1.13;;;;;;;18.14;59.97;101986.34;4868172;29;20024;-75
2021/10/17 05:15:10;;;;;;;2.38;1.25;;;;;;;18.14;60.05;101983.75;4852753;29;20032;-78
2021/10/17 05:17:35;;;;;;;2.60;1.25;;;;;;;18.15;59.95;101992.44;4884098;29;20119;-76
2021/10/17 05:20:01;;;;;;;3.15;1.40;;;;;;;18.14;59.95;101988.97;4900261;29;20100;-76
2021/10/17 05:22:26;;;;;;;2.17;1.35;;;;;;;18.14;60.10;101988.97;4900485;29;20044;-77
2021/10/17 05:24:55;;;;;;;2.22;1.35;;;;;;;18.13;60.08;101997.63;4883369;29;20127;-76
2021/10/17 05:27:20;;;;;;;2.08;1.30;;;;;;;18.12;60.12;101995.91;4898715;29;20028;-75
2021/10/17 05:29:45;;;;;;;2.55;1.30;;;;;;;18.12;60.07;101995.91;4867817;29;20035;-77
2021/10/17 05:32:11;;;;;;;3.72;1.40;;;;;;;18.13;59.76;102004.56;4883367;29;20041;-76
2021/10/17 05:34:36;;;;;;;1.88;1.27;;;;;;;18.11;60.01;102003.69;4867757;29;20032;-75
2021/10/17 05:37:04;;;;;;;2.10;1.10;;;;;;;18.11;60.30;102001.94;4883055;29;20036;-77
2021/10/17 05:39:30;;;;;;;3.40;1.50;;;;;;;18.12;60.00;102002.81;4900060;29;20500;-76
2021/10/17 05:41:55;;;;;;;3.28;1.60;;;;;;;18.12;59.89;102002.81;4883138;29;20032;-78
2021/10/17 05:44:21;;;;;;;2.42;1.55;;;;;;;18.12;59.90;102000.22;4882552;29;20517;-78
2021/10/17 05:46:46;;;;;;;4.55;1.42;;;;;;;18.12;59.86;102013.22;4883112;29;20454;-78
2021/10/17 05:49:12;;;;;;;3.08;1.35;;;;;;;18.11;60.08;102012.38;4882876;29;20032;-78
2021/10/17 05:51:37;;;;;;;3.22;1.58;;;;;;;18.12;59.83;102006.31;4867451;29;20513;-77
2021/10/17 05:54:02;;;;;;;2.60;1.50;;;;;;;18.11;59.96;102006.28;4883060;29;20112;-78
2021/10/17 05:56:28;;;;;;;3.08;1.70;;;;;;;18.11;60.14;102001.94;4899812;29;20478;-78
2021/10/17 05:58:53;;;;;;;3.20;1.50;;;;;;;18.12;60.07;102002.81;4882143;29;20040;-80
2021/10/17 06:01:18;;;;;;;2.30;1.40;;;;;;;18.11;60.08;102004.56;4867211;29;20426;-79
2021/10/17 06:03:44;;;;;;;2.75;1.58;;;;;;;18.12;59.98;102005.41;4867123;29;20035;-79
2021/10/17 06:06:12;;;;;;;2.85;1.30;;;;;;;18.12;59.97;102011.53;4867413;29;20025;-78
2021/10/17 06:08:39;;;;;;;2.13;1.48;;;;;;;18.11;59.86;102014.97;4883036;29;20041;-78
2021/10/17 06:11:05;;;;;;;3.75;1.60;;;;;;;18.12;59.89;102018.44;4882728;29;20033;-79
2021/10/17 06:13:30;;;;;;;3.92;1.50;;;;;;;18.10;60.07;102015.84;4899307;29;20028;-77
2021/10/17 06:15:59;;;;;;;2.17;1.30;;;;;;;18.09;59.92;102014.09;4882795;29;20059;-77
2021/10/17 06:18:24;;;;;;;3.05;1.50;;;;;;;18.11;59.77;102024.53;4882438;29;20111;-78
2021/10/17 06:20:50;;;;;;;3.70;1.83;;;;;;;18.12;59.85;102021.94;4897898;29;20123;-78
2021/10/17 06:23:15;;;;;;;2.92;1.40;;;;;;;18.11;59.86;102028.00;4898225;29;20028;-77
2021/10/17 06:25:40;;;;;;;3.25;1.60;;;;;;;18.11;60.13;102027.13;4882707;29;20068;-78
2021/10/17 06:28:06;;;;;;;3.35;1.50;;;;;;;18.12;60.02;102028.88;4882930;29;20037;-79
2021/10/17 06:30:32;;;;;;;3.78;1.75;;;;;;;18.11;59.92;102022.78;4867210;29;20425;-79
2021/10/17 06:32:58;;;;;;;3.20;1.60;;;;;;;18.11;59.96;102030.59;4882241;29;20477;-78
2021/10/17 06:35:23;;;;;;;2.20;1.30;;;;;;;18.13;60.09;102033.22;4882062;29;20028;-78
2021/10/17 06:37:48;;;;;;;1.92;1.38;;;;;;;18.13;60.21;102030.63;4882251;29;20134;-80
2021/10/17 06:40:16;;;;;;;3.10;1.40;;;;;;;18.13;60.03;102028.88;4851361;29;20032;-78
2021/10/17 06:42:42;;;;;;;2.58;1.38;;;;;;;18.14;60.09;102030.66;4882227;29;20041;-77
2021/10/17 06:45:07;;;;;;;2.47;1.40;;;;;;;18.15;60.22;102028.91;4851241;29;20037;-78
2021/10/17 06:47:33;;;;;;;2.45;1.23;;;;;;;18.16;60.17;102039.34;4897625;29;20501;-77
2021/10/17 06:50:01;;;;;;;2.45;1.48;;;;;;;18.19;60.11;102033.28;4882271;29;20107;-77
2021/10/17 06:52:26;;;;;;;4.13;1.50;;;;;;;18.20;60.34;102033.28;4881841;29;20473;-76
2021/10/17 06:54:51;;;;;;;3.25;1.65;;;;;;;18.22;60.12;102033.28;4866409;29;20049;-74
2021/10/17 06:57:17;;;;;;;4.35;1.33;;;;;;;18.23;60.10;102037.66;4881594;29;20556;-75
2021/10/17 06:59:42;;;;;;;3.08;1.40;;;;;;;18.25;60.07;102034.19;4866274;29;20367;-75
2021/10/17 07:02:07;;;;;;;5.50;1.60;;;;;;;18.25;60.04;102041.16;4881636;29;20154;-75
2021/10/17 07:04:33;;;;;;;2.35;1.38;;;;;;;18.27;60.23;102039.41;4881830;29;20449;-75
2021/10/17 07:06:59;;;;;;;2.65;1.60;;;;;;;18.26;60.14;102043.75;4850935;29;20060;-75
2021/10/17 07:09:24;;;;;;;3.45;1.50;;;;;;;18.26;60.02;102043.75;4865467;29;20024;-77
2021/10/17 07:11:52;;;;;;;2.35;1.30;;;;;;;18.26;60.31;102043.75;4866404;29;20033;-75
2021/10/17 07:14:18;;;;;;;2.50;1.50;;;;;;;18.27;60.21;102040.28;4898600;29;20446;-76
2021/10/17 07:16:43;;;;;;;3.20;1.50;;;;;;;18.27;60.25;102040.28;4898631;29;20056;-76
2021/10/17 07:19:09;;;;;;;4.90;1.50;;;;;;;18.27;60.32;102036.81;4898569;29;20123;-76
2021/10/17 07:21:34;;;;;;;2.78;1.45;;;;;;;18.27;60.21;102037.69;4881641;29;20032;-76
2021/10/17 07:23:59;;;;;;;3.08;1.45;;;;;;;18.29;60.22;102037.66;4881520;29;20482;-75
2021/10/17 07:26:25;;;;;;;2.70;1.77;;;;;;;18.30;60.21;102039.44;4866232;29;20049;-75
2021/10/17 07:28:50;;;;;;;4.50;1.55;;;;;;;18.30;60.30;102040.28;4866027;29;20430;-78
2021/10/17 07:31:15;;;;;;;2.60;1.52;;;;;;;18.33;60.36;102047.25;4881871;29;20117;-79
2021/10/17 07:33:41;;;;;;;2.30;1.42;;;;;;;18.33;60.46;102043.78;4881652;29;20056;-77
2021/10/17 07:36:07;;;;;;;4.13;1.60;;;;;;;18.33;60.41;102036.81;4881519;29;20032;-77
2021/10/17 07:38:32;;;;;;;3.30;1.50;;;;;;;18.34;60.18;102048.16;4881442;29;20088;-76
2021/10/17 07:40:58;;;;;;;2.00;1.20;;;;;;;18.34;60.38;102043.81;4881352;29;20131;-74
2021/10/17 07:43:23;;;;;;;1.60;1.20;;;;;;;18.35;60.34;102047.28;4898007;29;20493;-77
2021/10/17 07:45:52;;;;;;;2.20;1.38;;;;;;;18.35;60.40;102049.88;4867582;29;20075;-75
2021/10/17 07:48:17;;;;;;;2.97;1.60;;;;;;;18.36;60.25;102047.28;4867105;29;20176;-76
2021/10/17 07:50:42;;;;;;;3.42;1.42;;;;;;;18.36;60.24;102047.28;4881543;29;20119;-77
2021/10/17 07:53:08;;;;;;;2.30;1.33;;;;;;;18.37;60.24;102045.56;4898048;29;20029;-77
2021/10/17 07:55:34;;;;;;;3.28;1.42;;;;;;;18.38;60.32;102042.97;4898520;29;20037;-77
2021/10/17 07:57:59;;;;;;;1.70;1.30;;;;;;;18.39;60.73;102034.28;4881305;29;20024;-78
2021/10/17 08:00:26;;;;;;;2.15;1.20;;;;;;;18.41;60.37;102040.38;4897053;29;20072;-79
2021/10/17 08:02:52;;;;;;;2.55;1.33;;;;;;;18.42;60.20;102043.84;4898642;29;20145;-79
2021/10/17 08:05:19;;;;;;;2.88;1.30;;;;;;;18.45;60.05;102036.91;4881607;29;20060;-77
2021/10/17 08:07:44;;;;;;;2.90;1.33;;;;;;;18.49;60.18;102046.50;4881377;29;20419;-78
2021/10/17 08:10:10;;;;;;;2.20;1.27;;;;;;;18.52;60.02;102042.16;4897997;29;20103;-76
2021/10/17 08:12:36;;;;;;;2.08;1.30;;;;;;;18.56;59.87;102041.34;4866361;29;20029;-79
2021/10/17 08:15:03;;;;;;;4.40;1.52;;;;;;;18.57;60.20;102036.09;4866049;29;20052;-78
2021/10/17 08:17:29;;;;;;;2.08;1.30;;;;;;;18.61;60.25;102032.66;4881288;29;20061;-78
2021/10/17 08:19:54;;;;;;;13.98;5.05;;;;;;;18.63;59.87;102035.28;4881252;29;20120;-80
2021/10/17 08:22:21;;;;;;;12.35;3.95;;;;;;;18.63;60.00;102038.75;4899694;29;20112;-79
2021/10/17 08:24:47;;;;;;;7.15;3.13;;;;;;;18.68;60.10;102036.16;4901632;29;20377;-77
2021/10/17 08:27:12;;;;;;;11.10;3.55;;;;;;;18.78;60.00;102035.38;4901257;29;20024;-77
2021/10/17 08:29:38;;;;;;;6.00;2.85;;;;;;;18.86;59.91;102038.03;4884477;29;20029;-78
2021/10/17 08:32:04;;;;;;;5.25;2.60;;;;;;;18.91;59.66;102036.31;4884382;29;20499;-77
2021/10/17 08:34:29;;;;;;;8.82;2.83;;;;;;;18.94;59.69;102033.69;4853551;29;20031;-77
2021/10/17 08:36:54;;;;;;;7.53;2.55;;;;;;;18.96;59.90;102038.94;4884388;29;20123;-75
2021/10/17 08:39:20;;;;;;;6.43;2.70;;;;;;;18.98;59.91;102032.84;4868736;29;20048;-75
2021/10/17 08:41:46;;;;;;;4.88;2.50;;;;;;;19.01;59.92;102035.47;4868845;29;20501;-77
2021/10/17 08:44:16;;;;;;;7.38;2.63;;;;;;;19.06;59.87;102031.16;4884326;29;20040;-77
2021/10/17 08:46:43;;;;;;;6.10;2.45;;;;;;;19.10;59.77;102043.34;4869866;29;20065;-77
2021/10/17 08:49:11;;;;;;;7.80;2.83;;;;;;;19.14;59.68;102035.50;4883995;29;20028;-77
2021/10/17 08:51:37;;;;;;;5.05;2.22;;;;;;;19.13;59.62;102031.16;4900870;29;20103;-76
2021/10/17 08:54:04;;;;;;;5.32;2.40;;;;;;;19.10;59.61;102032.03;4900756;29;20390;-76
2021/10/17 08:56:30;;;;;;;5.22;2.60;;;;;;;19.10;59.69;102034.66;4900633;29;20477;-80
2021/10/17 08:58:55;;;;;;;5.63;2.40;;;;;;;19.09;59.68;102038.97;4883967;29;20103;-78
2021/10/17 09:01:21;;;;;;;5.18;2.38;;;;;;;19.05;59.66;102041.56;4900333;29;20049;-77
2021/10/17 09:04:01;;;;;;;5.30;2.38;;;;;;;19.01;59.67;102042.41;4883790;29;20052;-78
2021/10/17 09:06:32;;;;;;;7.07;2.40;;;;;;;18.96;59.53;102047.63;4884590;29;20037;-79
2021/10/17 09:09:24;;;;;;;7.93;3.15;;;;;;;18.93;59.20;102049.38;4900553;29;20039;-76
2021/10/17 09:11:51;;;;;;;13.75;4.18;;;;;;;18.87;58.49;102040.63;4864801;29;20041;-77
2021/10/17 09:14:22;;;;;;;14.25;4.28;;;;;;;18.84;58.94;102044.97;4883949;29;20032;-77
2021/10/17 09:16:50;;;;;;;21.27;3.70;;;;;;;18.83;59.01;102048.44;4883753;29;20111;-78
2021/10/17 09:19:24;;;;;;;17.17;3.83;;;;;;;18.80;58.98;102040.63;4883603;29;20028;-77
2021/10/17 09:22:08;;;;;;;9.35;3.70;;;;;;;18.80;58.80;102041.47;4899194;29;20111;-76
2021/10/17 09:24:33;;;;;;;9.60;3.38;;;;;;;18.80;59.00;102040.63;4898892;29;20032;-77
2021/10/17 09:27:13;;;;;;;9.45;3.10;;;;;;;18.78;58.27;102037.13;4900121;29;20028;-79
2021/10/17 09:29:52;;;;;;;9.88;3.50;;;;;;;18.75;58.50;102037.94;4883369;29;20442;-75
2021/10/17 09:32:22;;;;;;;10.60;3.17;;;;;;;18.75;58.76;102034.44;4882353;29;20389;-76
2021/10/17 09:34:59;;;;;;;10.15;3.45;;;;;;;18.77;58.39;102024.91;4898653;29;20032;-75
2021/10/17 09:37:37;;;;;;;9.55;3.38;;;;;;;18.71;58.20;102029.22;4884027;29;20047;-75
2021/10/17 09:40:17;;;;;;;8.80;3.38;;;;;;;18.68;58.22;102026.63;4867748;29;20029;-77
2021/10/17 09:42:59;;;;;;;8.68;3.50;;;;;;;18.66;57.99;102033.56;4899733;29;20024;-76
2021/10/17 09:45:24;;;;;;;9.00;3.47;;;;;;;18.66;57.62;102033.56;4885395;29;20492;-75
2021/10/17 09:47:50;;;;;;;10.73;3.15;;;;;;;18.67;57.99;102045.72;4899908;29;20028;-78
2021/10/17 09:50:18;;;;;;;8.45;3.08;;;;;;;18.67;57.74;102037.91;4867378;29;20056;-75
2021/10/17 09:53:00;;;;;;;9.38;3.80;;;;;;;18.68;57.59;102036.16;4867486;29;20180;-78
2021/10/17 09:55:27;;;;;;;7.20;4.25;;;;;;;18.70;57.57;102037.94;4899847;29;20024;-80
2021/10/17 09:57:53;;;;;;;12.38;4.35;;;;;;;18.71;57.32;102041.41;4882694;29;20032;-76
2021/10/17 10:00:19;;;;;;;11.27;4.53;;;;;;;18.71;57.72;102044.88;4882851;29;20024;-76
2021/10/17 10:02:49;;;;;;;9.45;4.50;;;;;;;18.73;57.42;102037.06;4867202;29;20510;-75
2021/10/17 10:05:28;;;;;;;11.80;5.03;;;;;;;18.76;57.36;102046.63;4882666;29;20031;-75
2021/10/17 10:08:06;;;;;;;11.88;4.55;;;;;;;18.77;57.37;102037.94;4867544;29;20610;-78
2021/10/17 10:10:32;;;;;;;12.98;5.32;;;;;;;18.78;56.96;102038.00;4899481;29;20509;-76
2021/10/17 10:13:01;;;;;;;8.35;4.60;;;;;;;18.79;56.94;102042.34;4898060;29;20066;-76
2021/10/17 10:15:27;;;;;;;12.57;4.80;;;;;;;18.82;56.84;102044.97;4882186;29;20028;-76
2021/10/17 10:17:54;;;;;;;10.82;5.00;;;;;;;18.83;56.54;102038.88;4866962;29;20191;-78
2021/10/17 10:20:22;;;;;;;8.10;4.95;;;;;;;18.82;56.74;102029.31;4882306;29;20032;-75
2021/10/17 10:22:48;;;;;;;13.70;5.13;;;;;;;18.82;56.68;102028.44;4899120;29;20029;-76
2021/10/17 10:25:16;;;;;;;8.85;5.18;;;;;;;18.80;56.64;102035.41;4882625;29;20028;-76
2021/10/17 10:27:42;;;;;;;13.55;5.15;;;;;;;18.76;56.27;102029.25;4899037;29;20480;-77
2021/10/17 10:30:30;;;;;;;9.20;4.93;;;;;;;18.73;56.25;102030.97;4866941;29;20140;-77
2021/10/17 10:33:05;;;;;;;10.63;4.85;;;;;;;18.71;56.11;102031.84;4897622;29;20028;-76
2021/10/17 10:35:31;;;;;;;10.88;5.45;;;;;;;18.71;56.36;102036.19;4882070;29;20132;-78
2021/10/17 10:37:56;;;;;;;9.20;4.90;;;;;;;18.71;56.56;102037.06;4897719;29;20569;-76
2021/10/17 10:40:21;;;;;;;12.68;5.70;;;;;;;18.74;56.30;102037.94;4882143;29;20507;-76
2021/10/17 10:42:50;;;;;;;10.40;5.20;;;;;;;18.73;56.16;102036.19;4866438;29;20029;-76
2021/10/17 10:45:20;;;;;;;10.27;5.28;;;;;;;18.71;55.99;102041.41;4898435;29;20036;-75
2021/10/17 10:47:47;;;;;;;8.57;5.30;;;;;;;18.71;55.96;102042.28;4881990;29;20035;-76
2021/10/17 10:50:13;;;;;;;10.05;5.18;;;;;;;18.69;55.72;102038.78;4898664;29;20160;-76
2021/10/17 10:52:43;;;;;;;10.40;5.53;;;;;;;18.70;56.03;102043.16;4881679;29;20384;-75
2021/10/17 10:55:12;;;;;;;8.73;5.20;;;;;;;18.70;56.19;102037.94;4897447;29;20025;-75
2021/10/17 10:57:42;;;;;;;10.38;5.07;;;;;;;18.69;55.23;102046.59;4881640;29;20020;-76
2021/10/17 11:00:15;;;;;;;11.20;5.15;;;;;;;18.69;55.99;102036.19;4897505;29;20037;-76
2021/10/17 11:03:12;;;;;;;9.32;5.03;;;;;;;18.70;55.71;102045.75;4881442;29;20408;-76
2021/10/17 11:05:37;;;;;;;9.95;5.30;;;;;;;18.71;55.94;102047.50;4881449;29;20046;-76
2021/10/17 11:08:14;;;;;;;8.32;4.63;;;;;;;18.68;55.70;102044.88;4881528;29;20129;-75
2021/10/17 11:10:41;;;;;;;11.18;4.85;;;;;;;18.70;55.92;102050.97;4898455;29;20029;-76
2021/10/17 11:13:09;;;;;;;9.30;4.97;;;;;;;18.70;55.50;102045.75;4881604;29;20095;-76
2021/10/17 11:15:37;;;;;;;11.35;4.90;;;;;;;18.69;55.77;102048.34;4881815;29;20033;-76
2021/10/17 11:18:09;;;;;;;9.82;4.93;;;;;;;18.67;55.70;102045.72;4881553;29;20057;-77
2021/10/17 11:20:47;;;;;;;10.45;4.70;;;;;;;18.67;55.72;102047.47;4897184;29;20115;-78
2021/10/17 11:23:24;;;;;;;7.78;4.75;;;;;;;18.67;55.79;102042.25;4896971;29;20153;-80